OOSKW LOWI-EBAW
Flight info
| Callsign | OOSKW |
|---|---|
| Flight time | 2h 45m |
| Altitude | 12000 |
| Route | KPT L856 SIXWA/N0181F110 DCT MOMUK/N0183F120 DCT LUPOL Z79 ALOHE DCT LAMGO DCT MANEM/N0178F090 Q762 OLIVI/N0184F120 DCT ROPUV DCT KOGES DCT BATTY |
| Aircraft | DA42/L-SBDGRY/S |
Departure
| Time | 2026-05-07 08:46 |
|---|---|
| Airport | Innsbruck Airport (LOWI) |
Arrival
| Time | 2026-05-07 11:31 |
|---|---|
| Airport | Antwerp International Airport (Deurne) (EBAW) |
| Time | Latitude | Longitude | Altitude | Speed | Heading |
|---|---|---|---|---|---|
| 2026-05-07 08:17 | 47.25848 | 11.35355 | 1895 ft | 0 kts | 262° |
| 2026-05-07 08:33 | 47.25848 | 11.35354 | 1895 ft | 2 kts | 261° |
| 2026-05-07 08:33 | 47.25872 | 11.35313 | 1895 ft | 9 kts | 294° |
| 2026-05-07 08:33 | 47.25888 | 11.35219 | 1895 ft | 10 kts | 270° |
| 2026-05-07 08:34 | 47.25879 | 11.35112 | 1895 ft | 11 kts | 262° |
| 2026-05-07 08:34 | 47.25865 | 11.34991 | 1891 ft | 13 kts | 261° |
| 2026-05-07 08:34 | 47.25854 | 11.34859 | 1895 ft | 14 kts | 262° |
| 2026-05-07 08:34 | 47.25837 | 11.34716 | 1895 ft | 14 kts | 263° |
| 2026-05-07 08:35 | 47.25825 | 11.34566 | 1895 ft | 15 kts | 263° |
| 2026-05-07 08:35 | 47.25808 | 11.34412 | 1895 ft | 15 kts | 261° |
| 2026-05-07 08:35 | 47.25792 | 11.34259 | 1892 ft | 14 kts | 259° |
| 2026-05-07 08:35 | 47.25776 | 11.34105 | 1892 ft | 16 kts | 259° |
| 2026-05-07 08:36 | 47.25778 | 11.33966 | 1902 ft | 11 kts | 286° |
| 2026-05-07 08:36 | 47.25804 | 11.33891 | 1905 ft | 6 kts | 305° |
| 2026-05-07 08:36 | 47.25814 | 11.33873 | 1907 ft | 0 kts | 279° |
| 2026-05-07 08:41 | 47.25815 | 11.33871 | 1897 ft | 0 kts | 296° |
| 2026-05-07 08:43 | 47.25823 | 11.33853 | 1898 ft | 7 kts | 306° |
| 2026-05-07 08:43 | 47.25872 | 11.33757 | 1911 ft | 14 kts | 305° |
| 2026-05-07 08:43 | 47.25931 | 11.33625 | 1907 ft | 17 kts | 288° |
| 2026-05-07 08:43 | 47.25918 | 11.33453 | 1908 ft | 17 kts | 257° |
| 2026-05-07 08:44 | 47.25895 | 11.33277 | 1908 ft | 17 kts | 253° |
| 2026-05-07 08:44 | 47.25867 | 11.33131 | 1903 ft | 12 kts | 340° |
| 2026-05-07 08:44 | 47.25886 | 11.33154 | 1905 ft | 0 kts | 78° |
| 2026-05-07 08:45 | 47.25915 | 11.33413 | 1908 ft | 52 kts | 81° |
| 2026-05-07 08:45 | 47.25991 | 11.34109 | 1955 ft | 78 kts | 82° |
| 2026-05-07 08:45 | 47.26077 | 11.34897 | 2141 ft | 78 kts | 84° |
| 2026-05-07 08:46 | 47.26154 | 11.35722 | 2363 ft | 82 kts | 83° |
| 2026-05-07 08:46 | 47.26258 | 11.36601 | 2537 ft | 91 kts | 82° |
| 2026-05-07 08:46 | 47.26361 | 11.37540 | 2802 ft | 94 kts | 82° |
| 2026-05-07 08:46 | 47.26460 | 11.38503 | 3026 ft | 96 kts | 82° |
| 2026-05-07 08:47 | 47.26562 | 11.39480 | 3265 ft | 97 kts | 82° |
| 2026-05-07 08:47 | 47.26666 | 11.40459 | 3495 ft | 97 kts | 82° |
| 2026-05-07 08:47 | 47.26769 | 11.41441 | 3727 ft | 97 kts | 82° |
| 2026-05-07 08:47 | 47.26873 | 11.42415 | 3955 ft | 97 kts | 82° |
| 2026-05-07 08:48 | 47.26978 | 11.43401 | 4184 ft | 98 kts | 82° |
| 2026-05-07 08:48 | 47.27084 | 11.44401 | 4391 ft | 100 kts | 82° |
| 2026-05-07 08:48 | 47.27303 | 11.45374 | 4590 ft | 101 kts | 70° |
| 2026-05-07 08:48 | 47.27554 | 11.46346 | 4787 ft | 103 kts | 69° |
| 2026-05-07 08:49 | 47.27844 | 11.47322 | 5008 ft | 104 kts | 69° |
| 2026-05-07 08:49 | 47.28115 | 11.48308 | 5260 ft | 104 kts | 68° |
| 2026-05-07 08:49 | 47.28388 | 11.49283 | 5527 ft | 103 kts | 68° |
| 2026-05-07 08:49 | 47.28661 | 11.50248 | 5797 ft | 102 kts | 69° |
| 2026-05-07 08:50 | 47.28680 | 11.51256 | 6057 ft | 100 kts | 112° |
| 2026-05-07 08:50 | 47.28420 | 11.52218 | 6280 ft | 102 kts | 113° |
| 2026-05-07 08:50 | 47.28152 | 11.53184 | 6509 ft | 102 kts | 114° |
| 2026-05-07 08:50 | 47.27863 | 11.54081 | 6710 ft | 102 kts | 131° |
| 2026-05-07 08:51 | 47.27265 | 11.54580 | 6945 ft | 101 kts | 175° |
| 2026-05-07 08:51 | 47.26602 | 11.54347 | 7180 ft | 99 kts | 219° |
| 2026-05-07 08:51 | 47.26229 | 11.53526 | 7405 ft | 98 kts | 260° |
| 2026-05-07 08:51 | 47.26309 | 11.52537 | 7626 ft | 100 kts | 282° |
| 2026-05-07 08:52 | 47.26167 | 11.51565 | 7840 ft | 99 kts | 246° |
| 2026-05-07 08:52 | 47.25867 | 11.50649 | 8073 ft | 99 kts | 246° |
| 2026-05-07 08:52 | 47.25570 | 11.49738 | 8308 ft | 99 kts | 246° |
| 2026-05-07 08:52 | 47.25291 | 11.48823 | 8548 ft | 98 kts | 249° |
| 2026-05-07 08:53 | 47.25035 | 11.47906 | 8768 ft | 98 kts | 250° |
| 2026-05-07 08:53 | 47.24781 | 11.46976 | 8996 ft | 98 kts | 250° |
| 2026-05-07 08:53 | 47.24533 | 11.46042 | 9219 ft | 98 kts | 250° |
| 2026-05-07 08:53 | 47.24285 | 11.45104 | 9456 ft | 99 kts | 250° |
| 2026-05-07 08:54 | 47.24037 | 11.44159 | 9703 ft | 99 kts | 250° |
| 2026-05-07 08:54 | 47.23791 | 11.43214 | 9940 ft | 99 kts | 250° |
| 2026-05-07 08:54 | 47.23544 | 11.42270 | 10151 ft | 99 kts | 250° |
| 2026-05-07 08:54 | 47.23297 | 11.41323 | 10367 ft | 99 kts | 250° |
| 2026-05-07 08:55 | 47.23089 | 11.40359 | 10595 ft | 99 kts | 264° |
| 2026-05-07 08:55 | 47.23198 | 11.39361 | 10817 ft | 101 kts | 287° |
| 2026-05-07 08:55 | 47.23428 | 11.38376 | 11049 ft | 102 kts | 287° |
| 2026-05-07 08:55 | 47.23659 | 11.37390 | 11293 ft | 102 kts | 287° |
| 2026-05-07 08:56 | 47.23891 | 11.36406 | 11531 ft | 102 kts | 287° |
| 2026-05-07 08:56 | 47.24123 | 11.35420 | 11772 ft | 102 kts | 286° |
| 2026-05-07 08:56 | 47.24358 | 11.34426 | 11991 ft | 107 kts | 286° |
| 2026-05-07 08:56 | 47.24625 | 11.33293 | 11995 ft | 126 kts | 287° |
| 2026-05-07 08:57 | 47.24927 | 11.32014 | 12001 ft | 138 kts | 286° |
| 2026-05-07 08:57 | 47.25251 | 11.30632 | 12004 ft | 147 kts | 287° |
| 2026-05-07 08:57 | 47.25594 | 11.29168 | 12007 ft | 155 kts | 286° |
| 2026-05-07 08:57 | 47.25953 | 11.27638 | 11998 ft | 159 kts | 287° |
| 2026-05-07 08:58 | 47.26310 | 11.26111 | 11993 ft | 156 kts | 286° |
| 2026-05-07 08:58 | 47.26659 | 11.24616 | 11990 ft | 152 kts | 286° |
| 2026-05-07 08:58 | 47.27000 | 11.23157 | 11989 ft | 149 kts | 286° |
| 2026-05-07 08:58 | 47.27336 | 11.21725 | 11989 ft | 147 kts | 286° |
| 2026-05-07 08:59 | 47.27667 | 11.20308 | 11989 ft | 146 kts | 286° |
| 2026-05-07 08:59 | 47.27998 | 11.18892 | 11989 ft | 146 kts | 286° |
| 2026-05-07 08:59 | 47.28328 | 11.17477 | 11986 ft | 146 kts | 286° |
| 2026-05-07 08:59 | 47.28653 | 11.16086 | 11988 ft | 145 kts | 285° |
| 2026-05-07 09:00 | 47.28981 | 11.14681 | 11988 ft | 145 kts | 285° |
| 2026-05-07 09:00 | 47.29309 | 11.13273 | 11989 ft | 145 kts | 285° |
| 2026-05-07 09:00 | 47.29635 | 11.11866 | 11987 ft | 145 kts | 285° |
| 2026-05-07 09:00 | 47.29962 | 11.10463 | 11988 ft | 145 kts | 285° |
| 2026-05-07 09:01 | 47.30287 | 11.09065 | 11990 ft | 145 kts | 286° |
| 2026-05-07 09:01 | 47.30613 | 11.07663 | 11987 ft | 144 kts | 285° |
| 2026-05-07 09:01 | 47.30937 | 11.06264 | 11989 ft | 144 kts | 285° |
| 2026-05-07 09:01 | 47.31261 | 11.04870 | 11987 ft | 144 kts | 285° |
| 2026-05-07 09:02 | 47.31584 | 11.03475 | 11988 ft | 144 kts | 285° |
| 2026-05-07 09:02 | 47.31907 | 11.02082 | 11989 ft | 143 kts | 285° |
| 2026-05-07 09:02 | 47.32229 | 11.00692 | 11986 ft | 143 kts | 285° |
| 2026-05-07 09:02 | 47.32552 | 10.99298 | 11988 ft | 144 kts | 285° |
| 2026-05-07 09:03 | 47.32874 | 10.97900 | 11988 ft | 144 kts | 285° |
| 2026-05-07 09:03 | 47.33198 | 10.96496 | 11988 ft | 145 kts | 285° |
| 2026-05-07 09:03 | 47.33524 | 10.95094 | 11984 ft | 144 kts | 285° |
| 2026-05-07 09:03 | 47.33845 | 10.93706 | 11992 ft | 143 kts | 285° |
| 2026-05-07 09:04 | 47.34167 | 10.92303 | 11981 ft | 144 kts | 284° |
| 2026-05-07 09:04 | 47.34488 | 10.90900 | 11994 ft | 146 kts | 285° |
| 2026-05-07 09:04 | 47.34819 | 10.89475 | 11986 ft | 147 kts | 285° |
| 2026-05-07 09:04 | 47.35147 | 10.88051 | 11987 ft | 146 kts | 285° |
| 2026-05-07 09:05 | 47.35468 | 10.86654 | 11989 ft | 143 kts | 285° |
| 2026-05-07 09:05 | 47.35788 | 10.85266 | 11990 ft | 144 kts | 285° |
| 2026-05-07 09:05 | 47.36109 | 10.83867 | 11991 ft | 144 kts | 284° |
| 2026-05-07 09:05 | 47.36431 | 10.82463 | 11993 ft | 145 kts | 285° |
| 2026-05-07 09:06 | 47.36754 | 10.81051 | 11998 ft | 145 kts | 285° |
| 2026-05-07 09:06 | 47.37077 | 10.79652 | 11985 ft | 142 kts | 285° |
| 2026-05-07 09:06 | 47.37387 | 10.78294 | 11986 ft | 138 kts | 285° |
| 2026-05-07 09:06 | 47.37690 | 10.76968 | 11988 ft | 138 kts | 285° |
| 2026-05-07 09:07 | 47.38005 | 10.75593 | 11991 ft | 140 kts | 285° |
| 2026-05-07 09:07 | 47.38314 | 10.74246 | 12001 ft | 141 kts | 285° |
| 2026-05-07 09:07 | 47.38634 | 10.72856 | 11999 ft | 144 kts | 286° |
| 2026-05-07 09:07 | 47.39156 | 10.71569 | 12003 ft | 150 kts | 306° |
| 2026-05-07 09:08 | 47.39963 | 10.70600 | 11993 ft | 147 kts | 318° |
| 2026-05-07 09:08 | 47.40792 | 10.69754 | 11988 ft | 142 kts | 318° |
| 2026-05-07 09:08 | 47.41588 | 10.68933 | 11995 ft | 138 kts | 319° |
| 2026-05-07 09:08 | 47.42385 | 10.68119 | 12008 ft | 142 kts | 319° |
| 2026-05-07 09:09 | 47.43213 | 10.67278 | 12006 ft | 147 kts | 319° |
| 2026-05-07 09:09 | 47.43773 | 10.66709 | 12004 ft | 148 kts | 319° |
| 2026-05-07 09:09 | 47.44619 | 10.65844 | 12006 ft | 148 kts | 319° |
| 2026-05-07 09:09 | 47.45465 | 10.64981 | 12009 ft | 148 kts | 319° |
| 2026-05-07 09:10 | 47.46313 | 10.64109 | 12008 ft | 149 kts | 320° |
| 2026-05-07 09:10 | 47.47172 | 10.63228 | 12009 ft | 152 kts | 319° |
| 2026-05-07 09:10 | 47.48051 | 10.62329 | 12009 ft | 155 kts | 319° |
| 2026-05-07 09:10 | 47.48938 | 10.61419 | 12010 ft | 155 kts | 320° |
| 2026-05-07 09:11 | 47.49829 | 10.60508 | 12009 ft | 156 kts | 320° |
| 2026-05-07 09:11 | 47.50727 | 10.59588 | 12010 ft | 158 kts | 320° |
| 2026-05-07 09:11 | 47.51630 | 10.58663 | 12013 ft | 158 kts | 320° |
| 2026-05-07 09:11 | 47.52525 | 10.57740 | 12014 ft | 156 kts | 319° |
| 2026-05-07 09:12 | 47.53417 | 10.56825 | 12011 ft | 156 kts | 319° |
| 2026-05-07 09:12 | 47.54288 | 10.55932 | 12010 ft | 150 kts | 319° |
| 2026-05-07 09:12 | 47.55144 | 10.55055 | 12008 ft | 149 kts | 319° |
| 2026-05-07 09:12 | 47.55990 | 10.54185 | 12010 ft | 148 kts | 319° |
| 2026-05-07 09:13 | 47.56832 | 10.53317 | 12008 ft | 147 kts | 319° |
| 2026-05-07 09:13 | 47.57667 | 10.52456 | 12014 ft | 146 kts | 318° |
| 2026-05-07 09:13 | 47.58505 | 10.51594 | 12013 ft | 147 kts | 319° |
| 2026-05-07 09:13 | 47.59337 | 10.50736 | 12013 ft | 147 kts | 319° |
| 2026-05-07 09:14 | 47.60169 | 10.49880 | 12013 ft | 145 kts | 319° |
| 2026-05-07 09:14 | 47.61004 | 10.49020 | 12017 ft | 147 kts | 319° |
| 2026-05-07 09:14 | 47.61846 | 10.48154 | 12019 ft | 147 kts | 319° |
| 2026-05-07 09:14 | 47.62691 | 10.47282 | 12022 ft | 148 kts | 319° |
| 2026-05-07 09:15 | 47.63537 | 10.46409 | 12020 ft | 148 kts | 319° |
| 2026-05-07 09:15 | 47.64381 | 10.45539 | 12020 ft | 148 kts | 318° |
| 2026-05-07 09:15 | 47.65223 | 10.44667 | 12020 ft | 147 kts | 319° |
| 2026-05-07 09:15 | 47.66064 | 10.43798 | 12023 ft | 147 kts | 319° |
| 2026-05-07 09:16 | 47.66908 | 10.42926 | 12025 ft | 148 kts | 319° |
| 2026-05-07 09:16 | 47.67752 | 10.42054 | 12027 ft | 148 kts | 319° |
| 2026-05-07 09:16 | 47.68597 | 10.41180 | 12023 ft | 149 kts | 319° |
| 2026-05-07 09:16 | 47.69445 | 10.40303 | 12027 ft | 149 kts | 319° |
| 2026-05-07 09:17 | 47.70293 | 10.39425 | 12026 ft | 148 kts | 319° |
| 2026-05-07 09:17 | 47.71140 | 10.38548 | 12026 ft | 148 kts | 318° |
| 2026-05-07 09:17 | 47.71986 | 10.37672 | 12028 ft | 149 kts | 318° |
| 2026-05-07 09:17 | 47.72803 | 10.36825 | 12027 ft | 148 kts | 318° |
| 2026-05-07 09:18 | 47.73627 | 10.35926 | 12024 ft | 145 kts | 311° |
| 2026-05-07 09:18 | 47.74221 | 10.34760 | 12026 ft | 140 kts | 292° |
| 2026-05-07 09:18 | 47.74505 | 10.33399 | 12028 ft | 137 kts | 275° |
| 2026-05-07 09:18 | 47.74512 | 10.31982 | 12030 ft | 138 kts | 267° |
| 2026-05-07 09:19 | 47.74483 | 10.30557 | 12032 ft | 138 kts | 267° |
| 2026-05-07 09:19 | 47.74451 | 10.29124 | 12033 ft | 139 kts | 267° |
| 2026-05-07 09:19 | 47.74420 | 10.27691 | 12030 ft | 139 kts | 267° |
| 2026-05-07 09:19 | 47.74388 | 10.26284 | 12030 ft | 138 kts | 267° |
| 2026-05-07 09:20 | 47.74355 | 10.24837 | 12030 ft | 138 kts | 267° |
| 2026-05-07 09:20 | 47.74323 | 10.23425 | 12030 ft | 139 kts | 267° |
| 2026-05-07 09:20 | 47.74290 | 10.21990 | 12028 ft | 139 kts | 267° |
| 2026-05-07 09:20 | 47.74258 | 10.20561 | 12028 ft | 138 kts | 267° |
| 2026-05-07 09:21 | 47.74225 | 10.19140 | 12032 ft | 137 kts | 267° |
| 2026-05-07 09:21 | 47.74191 | 10.17715 | 12032 ft | 138 kts | 267° |
| 2026-05-07 09:21 | 47.74160 | 10.16288 | 12031 ft | 138 kts | 267° |
| 2026-05-07 09:21 | 47.74127 | 10.14865 | 12032 ft | 138 kts | 267° |
| 2026-05-07 09:22 | 47.74094 | 10.13440 | 12034 ft | 138 kts | 267° |
| 2026-05-07 09:22 | 47.74060 | 10.12016 | 12032 ft | 138 kts | 267° |
| 2026-05-07 09:22 | 47.74027 | 10.10595 | 12036 ft | 137 kts | 267° |
| 2026-05-07 09:22 | 47.73993 | 10.09184 | 12032 ft | 136 kts | 267° |
| 2026-05-07 09:23 | 47.73959 | 10.07774 | 12033 ft | 137 kts | 267° |
| 2026-05-07 09:23 | 47.73925 | 10.06358 | 12031 ft | 137 kts | 267° |
| 2026-05-07 09:23 | 47.73891 | 10.04939 | 12033 ft | 137 kts | 267° |
| 2026-05-07 09:23 | 47.73857 | 10.03526 | 12031 ft | 137 kts | 267° |
| 2026-05-07 09:24 | 47.73823 | 10.02120 | 12032 ft | 136 kts | 267° |
| 2026-05-07 09:24 | 47.73919 | 10.00727 | 12035 ft | 137 kts | 283° |
| 2026-05-07 09:24 | 47.74340 | 9.99437 | 12034 ft | 142 kts | 301° |
| 2026-05-07 09:24 | 47.75070 | 9.98412 | 12037 ft | 148 kts | 321° |
| 2026-05-07 09:25 | 47.76043 | 9.97832 | 12035 ft | 155 kts | 343° |
| 2026-05-07 09:25 | 47.77142 | 9.97851 | 12033 ft | 162 kts | 3° |
| 2026-05-07 09:25 | 47.78249 | 9.98146 | 12033 ft | 162 kts | 4° |
| 2026-05-07 09:25 | 47.79358 | 9.98453 | 12035 ft | 162 kts | 4° |
| 2026-05-07 09:26 | 47.80464 | 9.98761 | 12033 ft | 161 kts | 4° |
| 2026-05-07 09:26 | 47.81566 | 9.99065 | 12032 ft | 161 kts | 4° |
| 2026-05-07 09:26 | 47.82650 | 9.99362 | 12032 ft | 161 kts | 4° |
| 2026-05-07 09:26 | 47.83748 | 9.99629 | 12031 ft | 158 kts | 356° |
| 2026-05-07 09:27 | 47.84840 | 9.99477 | 12033 ft | 155 kts | 345° |
| 2026-05-07 09:27 | 47.85902 | 9.99238 | 12028 ft | 157 kts | 345° |
| 2026-05-07 09:27 | 47.88075 | 9.98746 | 12030 ft | 158 kts | 345° |
| 2026-05-07 09:28 | 47.89157 | 9.98502 | 12030 ft | 156 kts | 345° |
| 2026-05-07 09:28 | 47.90230 | 9.98260 | 12029 ft | 156 kts | 345° |
| 2026-05-07 09:28 | 47.91302 | 9.98018 | 12031 ft | 156 kts | 345° |
| 2026-05-07 09:28 | 47.92388 | 9.97772 | 12029 ft | 159 kts | 345° |
| 2026-05-07 09:29 | 47.93485 | 9.97524 | 12024 ft | 159 kts | 345° |
| 2026-05-07 09:29 | 47.94575 | 9.97277 | 12025 ft | 158 kts | 345° |
| 2026-05-07 09:29 | 47.95655 | 9.97033 | 12025 ft | 156 kts | 345° |
| 2026-05-07 09:29 | 47.96728 | 9.96791 | 12022 ft | 155 kts | 345° |
| 2026-05-07 09:30 | 47.97795 | 9.96550 | 12022 ft | 155 kts | 345° |
| 2026-05-07 09:30 | 47.98856 | 9.96309 | 12023 ft | 154 kts | 345° |
| 2026-05-07 09:30 | 47.99917 | 9.96068 | 12023 ft | 154 kts | 345° |
| 2026-05-07 09:30 | 48.00979 | 9.95827 | 12024 ft | 154 kts | 345° |
| 2026-05-07 09:31 | 48.02042 | 9.95585 | 12020 ft | 155 kts | 345° |
| 2026-05-07 09:31 | 48.03106 | 9.95345 | 12024 ft | 154 kts | 345° |
| 2026-05-07 09:31 | 48.04169 | 9.95103 | 12026 ft | 154 kts | 345° |
| 2026-05-07 09:31 | 48.05231 | 9.94862 | 12027 ft | 155 kts | 345° |
| 2026-05-07 09:32 | 48.06285 | 9.94624 | 12030 ft | 156 kts | 345° |
| 2026-05-07 09:32 | 48.07364 | 9.94378 | 12029 ft | 157 kts | 346° |
| 2026-05-07 09:32 | 48.08434 | 9.94136 | 12023 ft | 154 kts | 346° |
| 2026-05-07 09:32 | 48.09484 | 9.93899 | 12026 ft | 152 kts | 345° |
| 2026-05-07 09:33 | 48.10523 | 9.93662 | 12023 ft | 150 kts | 345° |
| 2026-05-07 09:33 | 48.11557 | 9.93425 | 12025 ft | 150 kts | 345° |
| 2026-05-07 09:33 | 48.12590 | 9.93189 | 12025 ft | 150 kts | 345° |
| 2026-05-07 09:33 | 48.13623 | 9.92954 | 12029 ft | 150 kts | 345° |
| 2026-05-07 09:34 | 48.14659 | 9.92717 | 12028 ft | 151 kts | 345° |
| 2026-05-07 09:34 | 48.15697 | 9.92481 | 12029 ft | 151 kts | 345° |
| 2026-05-07 09:34 | 48.16748 | 9.92242 | 12029 ft | 155 kts | 345° |
| 2026-05-07 09:34 | 48.17824 | 9.91995 | 12028 ft | 159 kts | 346° |
| 2026-05-07 09:35 | 48.18924 | 9.91744 | 12032 ft | 162 kts | 346° |
| 2026-05-07 09:35 | 48.20048 | 9.91487 | 12031 ft | 165 kts | 346° |
| 2026-05-07 09:35 | 48.21153 | 9.91087 | 12027 ft | 162 kts | 331° |
| 2026-05-07 09:35 | 48.22072 | 9.90172 | 12030 ft | 158 kts | 312° |
| 2026-05-07 09:36 | 48.22724 | 9.88873 | 12028 ft | 156 kts | 299° |
| 2026-05-07 09:36 | 48.23301 | 9.87491 | 12024 ft | 156 kts | 299° |
| 2026-05-07 09:36 | 48.23866 | 9.86128 | 12015 ft | 152 kts | 299° |
| 2026-05-07 09:36 | 48.24415 | 9.84803 | 12015 ft | 148 kts | 299° |
| 2026-05-07 09:37 | 48.24952 | 9.83506 | 12015 ft | 145 kts | 299° |
| 2026-05-07 09:37 | 48.25479 | 9.82231 | 12013 ft | 143 kts | 298° |
| 2026-05-07 09:37 | 48.26003 | 9.80967 | 12012 ft | 142 kts | 298° |
| 2026-05-07 09:37 | 48.26522 | 9.79710 | 12014 ft | 141 kts | 298° |
| 2026-05-07 09:38 | 48.27039 | 9.78461 | 12013 ft | 141 kts | 299° |
| 2026-05-07 09:38 | 48.27554 | 9.77215 | 12013 ft | 140 kts | 299° |
| 2026-05-07 09:38 | 48.28068 | 9.75972 | 12012 ft | 140 kts | 298° |
| 2026-05-07 09:38 | 48.28574 | 9.74746 | 12011 ft | 140 kts | 299° |
| 2026-05-07 09:39 | 48.29087 | 9.73503 | 12014 ft | 140 kts | 299° |
| 2026-05-07 09:39 | 48.29601 | 9.72258 | 12010 ft | 140 kts | 299° |
| 2026-05-07 09:39 | 48.30114 | 9.71014 | 12010 ft | 140 kts | 299° |
| 2026-05-07 09:39 | 48.30626 | 9.69775 | 12008 ft | 139 kts | 299° |
| 2026-05-07 09:40 | 48.31136 | 9.68535 | 12010 ft | 139 kts | 299° |
| 2026-05-07 09:40 | 48.31647 | 9.67296 | 12008 ft | 140 kts | 299° |
| 2026-05-07 09:40 | 48.32158 | 9.66053 | 12008 ft | 140 kts | 299° |
| 2026-05-07 09:40 | 48.32671 | 9.64808 | 12007 ft | 140 kts | 299° |
| 2026-05-07 09:41 | 48.33184 | 9.63559 | 12006 ft | 140 kts | 299° |
| 2026-05-07 09:41 | 48.33696 | 9.62314 | 12006 ft | 140 kts | 299° |
| 2026-05-07 09:41 | 48.34208 | 9.61072 | 12008 ft | 140 kts | 299° |
| 2026-05-07 09:41 | 48.34719 | 9.59827 | 12008 ft | 140 kts | 299° |
| 2026-05-07 09:42 | 48.35231 | 9.58582 | 12003 ft | 140 kts | 299° |
| 2026-05-07 09:42 | 48.35743 | 9.57335 | 12006 ft | 140 kts | 299° |
| 2026-05-07 09:42 | 48.36254 | 9.56088 | 12007 ft | 140 kts | 299° |
| 2026-05-07 09:42 | 48.36768 | 9.54836 | 12007 ft | 141 kts | 299° |
| 2026-05-07 09:43 | 48.37281 | 9.53584 | 12008 ft | 141 kts | 299° |
| 2026-05-07 09:43 | 48.37790 | 9.52343 | 12008 ft | 141 kts | 299° |
| 2026-05-07 09:43 | 48.38305 | 9.51085 | 12005 ft | 142 kts | 299° |
| 2026-05-07 09:43 | 48.38820 | 9.49829 | 12005 ft | 141 kts | 299° |
| 2026-05-07 09:44 | 48.39333 | 9.48576 | 12002 ft | 141 kts | 299° |
| 2026-05-07 09:44 | 48.39846 | 9.47322 | 12005 ft | 141 kts | 299° |
| 2026-05-07 09:44 | 48.40395 | 9.46095 | 12007 ft | 143 kts | 308° |
| 2026-05-07 09:44 | 48.41118 | 9.45058 | 12009 ft | 144 kts | 313° |
| 2026-05-07 09:45 | 48.41850 | 9.44037 | 12006 ft | 143 kts | 313° |
| 2026-05-07 09:45 | 48.42582 | 9.43016 | 12008 ft | 143 kts | 313° |
| 2026-05-07 09:45 | 48.43314 | 9.41995 | 12010 ft | 143 kts | 313° |
| 2026-05-07 09:45 | 48.44044 | 9.40975 | 12010 ft | 143 kts | 313° |
| 2026-05-07 09:46 | 48.44775 | 9.39955 | 12012 ft | 143 kts | 313° |
| 2026-05-07 09:46 | 48.45506 | 9.38932 | 12014 ft | 144 kts | 313° |
| 2026-05-07 09:46 | 48.46239 | 9.37907 | 12013 ft | 144 kts | 313° |
| 2026-05-07 09:46 | 48.46972 | 9.36881 | 12014 ft | 144 kts | 313° |
| 2026-05-07 09:47 | 48.47709 | 9.35848 | 12016 ft | 145 kts | 313° |
| 2026-05-07 09:47 | 48.48447 | 9.34813 | 12014 ft | 145 kts | 313° |
| 2026-05-07 09:47 | 48.49185 | 9.33780 | 12015 ft | 145 kts | 313° |
| 2026-05-07 09:47 | 48.49922 | 9.32745 | 12015 ft | 145 kts | 313° |
| 2026-05-07 09:48 | 48.50661 | 9.31709 | 12020 ft | 146 kts | 313° |
| 2026-05-07 09:48 | 48.51405 | 9.30665 | 12019 ft | 146 kts | 313° |
| 2026-05-07 09:48 | 48.52149 | 9.29621 | 12020 ft | 146 kts | 313° |
| 2026-05-07 09:48 | 48.52892 | 9.28577 | 12017 ft | 146 kts | 313° |
| 2026-05-07 09:49 | 48.53634 | 9.27535 | 12019 ft | 145 kts | 313° |
| 2026-05-07 09:49 | 48.54372 | 9.26497 | 12018 ft | 145 kts | 313° |
| 2026-05-07 09:49 | 48.55098 | 9.25475 | 12017 ft | 145 kts | 313° |
| 2026-05-07 09:49 | 48.55834 | 9.24440 | 12020 ft | 145 kts | 313° |
| 2026-05-07 09:50 | 48.56572 | 9.23400 | 12021 ft | 145 kts | 313° |
| 2026-05-07 09:50 | 48.57313 | 9.22357 | 12020 ft | 146 kts | 314° |
| 2026-05-07 09:50 | 48.58053 | 9.21315 | 12021 ft | 145 kts | 314° |
| 2026-05-07 09:50 | 48.58790 | 9.20276 | 12023 ft | 145 kts | 314° |
| 2026-05-07 09:51 | 48.59531 | 9.19232 | 12022 ft | 145 kts | 314° |
| 2026-05-07 09:51 | 48.60271 | 9.18188 | 12026 ft | 146 kts | 314° |
| 2026-05-07 09:51 | 48.61012 | 9.17143 | 12025 ft | 146 kts | 314° |
| 2026-05-07 09:51 | 48.61752 | 9.16098 | 12024 ft | 146 kts | 314° |
| 2026-05-07 09:52 | 48.62493 | 9.15052 | 12026 ft | 146 kts | 314° |
| 2026-05-07 09:52 | 48.63234 | 9.14004 | 12024 ft | 146 kts | 314° |
| 2026-05-07 09:52 | 48.63975 | 9.12956 | 12026 ft | 146 kts | 314° |
| 2026-05-07 09:52 | 48.64719 | 9.11905 | 12024 ft | 146 kts | 314° |
| 2026-05-07 09:53 | 48.65463 | 9.10854 | 12026 ft | 146 kts | 314° |
| 2026-05-07 09:53 | 48.66207 | 9.09800 | 12024 ft | 147 kts | 314° |
| 2026-05-07 09:53 | 48.66949 | 9.08747 | 12026 ft | 146 kts | 314° |
| 2026-05-07 09:53 | 48.67691 | 9.07696 | 12023 ft | 146 kts | 314° |
| 2026-05-07 09:54 | 48.68434 | 9.06645 | 12023 ft | 146 kts | 314° |
| 2026-05-07 09:54 | 48.69175 | 9.05595 | 12025 ft | 146 kts | 314° |
| 2026-05-07 09:54 | 48.69918 | 9.04540 | 12022 ft | 146 kts | 314° |
| 2026-05-07 09:54 | 48.70651 | 9.03500 | 12026 ft | 147 kts | 314° |
| 2026-05-07 09:55 | 48.71396 | 9.02443 | 12024 ft | 147 kts | 314° |
| 2026-05-07 09:55 | 48.72142 | 9.01383 | 12024 ft | 147 kts | 314° |
| 2026-05-07 09:55 | 48.72888 | 9.00324 | 12021 ft | 147 kts | 314° |
| 2026-05-07 09:55 | 48.73636 | 8.99260 | 12023 ft | 147 kts | 314° |
| 2026-05-07 09:56 | 48.74381 | 8.98200 | 12021 ft | 147 kts | 313° |
| 2026-05-07 09:56 | 48.75129 | 8.97136 | 12022 ft | 148 kts | 314° |
| 2026-05-07 09:56 | 48.75877 | 8.96072 | 12021 ft | 147 kts | 314° |
| 2026-05-07 09:56 | 48.76624 | 8.95008 | 12019 ft | 147 kts | 314° |
| 2026-05-07 09:57 | 48.77370 | 8.93946 | 12018 ft | 147 kts | 314° |
| 2026-05-07 09:57 | 48.78115 | 8.92884 | 12019 ft | 147 kts | 313° |
| 2026-05-07 09:57 | 48.78864 | 8.91817 | 12021 ft | 148 kts | 314° |
| 2026-05-07 09:57 | 48.79615 | 8.90746 | 12021 ft | 148 kts | 314° |
| 2026-05-07 09:58 | 48.80364 | 8.89676 | 12018 ft | 148 kts | 314° |
| 2026-05-07 09:58 | 48.81111 | 8.88610 | 12017 ft | 148 kts | 314° |
| 2026-05-07 09:58 | 48.81859 | 8.87543 | 12018 ft | 148 kts | 314° |
| 2026-05-07 09:58 | 48.82355 | 8.86834 | 12018 ft | 148 kts | 314° |
| 2026-05-07 09:59 | 48.83102 | 8.85765 | 12014 ft | 147 kts | 314° |
| 2026-05-07 09:59 | 48.83847 | 8.84700 | 12015 ft | 147 kts | 314° |
| 2026-05-07 09:59 | 48.84592 | 8.83636 | 12014 ft | 147 kts | 314° |
| 2026-05-07 09:59 | 48.85334 | 8.82575 | 12012 ft | 146 kts | 314° |
| 2026-05-07 10:00 | 48.86073 | 8.81516 | 12012 ft | 146 kts | 314° |
| 2026-05-07 10:00 | 48.86812 | 8.80458 | 12012 ft | 146 kts | 314° |
| 2026-05-07 10:00 | 48.87550 | 8.79401 | 12011 ft | 146 kts | 314° |
| 2026-05-07 10:00 | 48.88289 | 8.78342 | 12009 ft | 146 kts | 314° |
| 2026-05-07 10:01 | 48.89025 | 8.77288 | 12010 ft | 145 kts | 314° |
| 2026-05-07 10:01 | 48.89765 | 8.76238 | 12013 ft | 145 kts | 314° |
| 2026-05-07 10:01 | 48.90506 | 8.75187 | 12012 ft | 146 kts | 315° |
| 2026-05-07 10:01 | 48.91245 | 8.74135 | 12011 ft | 146 kts | 315° |
| 2026-05-07 10:02 | 48.91983 | 8.73085 | 12012 ft | 145 kts | 314° |
| 2026-05-07 10:02 | 48.92711 | 8.72050 | 12012 ft | 145 kts | 314° |
| 2026-05-07 10:02 | 48.93454 | 8.70992 | 12010 ft | 144 kts | 315° |
| 2026-05-07 10:02 | 48.94187 | 8.69948 | 12011 ft | 144 kts | 314° |
| 2026-05-07 10:03 | 48.94919 | 8.68903 | 12009 ft | 144 kts | 314° |
| 2026-05-07 10:03 | 48.95651 | 8.67860 | 12014 ft | 144 kts | 315° |
| 2026-05-07 10:03 | 48.96384 | 8.66814 | 12011 ft | 144 kts | 315° |
| 2026-05-07 10:03 | 48.97116 | 8.65770 | 12013 ft | 144 kts | 315° |
| 2026-05-07 10:04 | 48.97850 | 8.64721 | 12015 ft | 145 kts | 315° |
| 2026-05-07 10:04 | 48.98575 | 8.63685 | 12010 ft | 145 kts | 315° |
| 2026-05-07 10:04 | 48.99310 | 8.62635 | 12009 ft | 145 kts | 315° |
| 2026-05-07 10:04 | 49.00042 | 8.61590 | 12015 ft | 144 kts | 315° |
| 2026-05-07 10:05 | 49.00774 | 8.60543 | 12007 ft | 145 kts | 315° |
| 2026-05-07 10:05 | 49.01507 | 8.59495 | 12010 ft | 145 kts | 315° |
| 2026-05-07 10:05 | 49.02246 | 8.58436 | 12013 ft | 146 kts | 315° |
| 2026-05-07 10:05 | 49.02991 | 8.57369 | 12013 ft | 148 kts | 315° |
| 2026-05-07 10:06 | 49.03742 | 8.56292 | 12014 ft | 149 kts | 315° |
| 2026-05-07 10:06 | 49.04503 | 8.55203 | 12016 ft | 150 kts | 314° |
| 2026-05-07 10:06 | 49.05260 | 8.54117 | 12012 ft | 150 kts | 315° |
| 2026-05-07 10:06 | 49.06018 | 8.53031 | 12014 ft | 149 kts | 315° |
| 2026-05-07 10:07 | 49.06774 | 8.51947 | 12015 ft | 149 kts | 315° |
| 2026-05-07 10:07 | 49.07527 | 8.50865 | 12014 ft | 148 kts | 315° |
| 2026-05-07 10:07 | 49.08276 | 8.49788 | 12017 ft | 148 kts | 315° |
| 2026-05-07 10:07 | 49.09026 | 8.48711 | 12019 ft | 148 kts | 315° |
| 2026-05-07 10:08 | 49.09773 | 8.47637 | 12021 ft | 148 kts | 315° |
| 2026-05-07 10:08 | 49.10521 | 8.46561 | 12020 ft | 148 kts | 315° |
| 2026-05-07 10:08 | 49.11270 | 8.45484 | 12018 ft | 148 kts | 315° |
| 2026-05-07 10:08 | 49.12006 | 8.44424 | 12020 ft | 147 kts | 314° |
| 2026-05-07 10:09 | 49.12751 | 8.43351 | 12023 ft | 147 kts | 315° |
| 2026-05-07 10:09 | 49.13498 | 8.42275 | 12021 ft | 148 kts | 315° |
| 2026-05-07 10:09 | 49.14254 | 8.41186 | 12020 ft | 148 kts | 315° |
| 2026-05-07 10:09 | 49.15002 | 8.40107 | 12021 ft | 148 kts | 315° |
| 2026-05-07 10:10 | 49.15750 | 8.39028 | 12023 ft | 148 kts | 315° |
| 2026-05-07 10:10 | 49.16497 | 8.37950 | 12019 ft | 148 kts | 314° |
| 2026-05-07 10:10 | 49.17242 | 8.36873 | 12023 ft | 147 kts | 315° |
| 2026-05-07 10:10 | 49.17977 | 8.35811 | 12021 ft | 147 kts | 315° |
| 2026-05-07 10:11 | 49.18730 | 8.34725 | 12021 ft | 147 kts | 315° |
| 2026-05-07 10:11 | 49.19474 | 8.33649 | 12020 ft | 147 kts | 315° |
| 2026-05-07 10:11 | 49.20206 | 8.32589 | 12022 ft | 147 kts | 315° |
| 2026-05-07 10:11 | 49.20949 | 8.31514 | 12023 ft | 147 kts | 315° |
| 2026-05-07 10:12 | 49.21691 | 8.30441 | 12023 ft | 147 kts | 315° |
| 2026-05-07 10:12 | 49.22433 | 8.29366 | 12024 ft | 147 kts | 315° |
| 2026-05-07 10:12 | 49.23178 | 8.28286 | 12021 ft | 147 kts | 314° |
| 2026-05-07 10:12 | 49.23932 | 8.27193 | 12021 ft | 147 kts | 315° |
| 2026-05-07 10:13 | 49.24666 | 8.26130 | 12023 ft | 147 kts | 315° |
| 2026-05-07 10:13 | 49.25419 | 8.25036 | 12023 ft | 148 kts | 314° |
| 2026-05-07 10:13 | 49.26167 | 8.23949 | 12024 ft | 149 kts | 315° |
| 2026-05-07 10:13 | 49.26925 | 8.22849 | 12022 ft | 151 kts | 314° |
| 2026-05-07 10:14 | 49.27677 | 8.21759 | 12024 ft | 151 kts | 314° |
| 2026-05-07 10:14 | 49.28441 | 8.20648 | 12023 ft | 152 kts | 314° |
| 2026-05-07 10:14 | 49.29207 | 8.19534 | 12025 ft | 152 kts | 314° |
| 2026-05-07 10:14 | 49.30049 | 8.18551 | 12024 ft | 153 kts | 323° |
| 2026-05-07 10:15 | 49.30934 | 8.17637 | 12024 ft | 154 kts | 323° |
| 2026-05-07 10:15 | 49.31820 | 8.16722 | 12022 ft | 154 kts | 323° |
| 2026-05-07 10:15 | 49.32703 | 8.15812 | 12019 ft | 152 kts | 323° |
| 2026-05-07 10:15 | 49.33578 | 8.14907 | 12021 ft | 151 kts | 323° |
| 2026-05-07 10:16 | 49.34448 | 8.14006 | 12021 ft | 150 kts | 323° |
| 2026-05-07 10:16 | 49.35313 | 8.13110 | 12023 ft | 150 kts | 323° |
| 2026-05-07 10:16 | 49.36175 | 8.12217 | 12022 ft | 150 kts | 323° |
| 2026-05-07 10:16 | 49.37037 | 8.11324 | 12024 ft | 150 kts | 323° |
| 2026-05-07 10:17 | 49.37899 | 8.10429 | 12025 ft | 149 kts | 323° |
| 2026-05-07 10:17 | 49.38762 | 8.09533 | 12024 ft | 149 kts | 323° |
| 2026-05-07 10:17 | 49.39621 | 8.08642 | 12022 ft | 148 kts | 323° |
| 2026-05-07 10:17 | 49.40475 | 8.07755 | 12022 ft | 148 kts | 323° |
| 2026-05-07 10:18 | 49.41325 | 8.06872 | 12021 ft | 147 kts | 323° |
| 2026-05-07 10:18 | 49.42173 | 8.05989 | 12021 ft | 148 kts | 323° |
| 2026-05-07 10:18 | 49.43016 | 8.05111 | 12022 ft | 146 kts | 323° |
| 2026-05-07 10:18 | 49.43858 | 8.04238 | 12020 ft | 146 kts | 323° |
| 2026-05-07 10:19 | 49.44695 | 8.03368 | 12024 ft | 145 kts | 323° |
| 2026-05-07 10:19 | 49.45542 | 8.02510 | 12024 ft | 147 kts | 329° |
| 2026-05-07 10:19 | 49.46449 | 8.01776 | 12023 ft | 147 kts | 329° |
| 2026-05-07 10:19 | 49.47356 | 8.01042 | 12027 ft | 148 kts | 329° |
| 2026-05-07 10:20 | 49.48265 | 8.00307 | 12028 ft | 148 kts | 329° |
| 2026-05-07 10:20 | 49.49177 | 7.99570 | 12025 ft | 148 kts | 329° |
| 2026-05-07 10:20 | 49.50091 | 7.98832 | 12025 ft | 149 kts | 328° |
| 2026-05-07 10:20 | 49.51008 | 7.98090 | 12024 ft | 149 kts | 329° |
| 2026-05-07 10:21 | 49.51920 | 7.97352 | 12028 ft | 148 kts | 329° |
| 2026-05-07 10:21 | 49.52819 | 7.96624 | 12028 ft | 148 kts | 329° |
| 2026-05-07 10:21 | 49.53729 | 7.95888 | 12029 ft | 148 kts | 329° |
| 2026-05-07 10:21 | 49.54641 | 7.95149 | 12028 ft | 148 kts | 329° |
| 2026-05-07 10:22 | 49.55554 | 7.94409 | 12029 ft | 148 kts | 328° |
| 2026-05-07 10:22 | 49.56464 | 7.93660 | 12027 ft | 148 kts | 325° |
| 2026-05-07 10:22 | 49.57227 | 7.92625 | 12027 ft | 146 kts | 313° |
| 2026-05-07 10:22 | 49.57944 | 7.91519 | 12026 ft | 146 kts | 313° |
| 2026-05-07 10:23 | 49.58661 | 7.90409 | 12031 ft | 146 kts | 312° |
| 2026-05-07 10:23 | 49.59379 | 7.89298 | 12031 ft | 147 kts | 312° |
| 2026-05-07 10:23 | 49.60098 | 7.88185 | 12029 ft | 146 kts | 312° |
| 2026-05-07 10:23 | 49.60818 | 7.87071 | 12028 ft | 147 kts | 312° |
| 2026-05-07 10:24 | 49.61539 | 7.85955 | 12033 ft | 147 kts | 312° |
| 2026-05-07 10:24 | 49.62260 | 7.84837 | 12032 ft | 147 kts | 312° |
| 2026-05-07 10:24 | 49.62983 | 7.83718 | 12031 ft | 148 kts | 312° |
| 2026-05-07 10:24 | 49.63708 | 7.82593 | 12031 ft | 148 kts | 312° |
| 2026-05-07 10:25 | 49.64432 | 7.81470 | 12032 ft | 147 kts | 312° |
| 2026-05-07 10:25 | 49.65154 | 7.80350 | 12030 ft | 147 kts | 313° |
| 2026-05-07 10:25 | 49.65873 | 7.79234 | 12034 ft | 146 kts | 312° |
| 2026-05-07 10:25 | 49.66591 | 7.78119 | 12033 ft | 147 kts | 312° |
| 2026-05-07 10:26 | 49.67313 | 7.76997 | 12029 ft | 148 kts | 312° |
| 2026-05-07 10:26 | 49.68036 | 7.75872 | 12033 ft | 148 kts | 313° |
| 2026-05-07 10:26 | 49.68766 | 7.74737 | 12030 ft | 150 kts | 312° |
| 2026-05-07 10:26 | 49.69502 | 7.73592 | 12029 ft | 151 kts | 312° |
| 2026-05-07 10:27 | 49.70240 | 7.72444 | 12032 ft | 151 kts | 312° |
| 2026-05-07 10:27 | 49.70981 | 7.71290 | 12026 ft | 151 kts | 312° |
| 2026-05-07 10:27 | 49.71722 | 7.70135 | 12024 ft | 151 kts | 311° |
| 2026-05-07 10:27 | 49.72460 | 7.68984 | 12024 ft | 150 kts | 312° |
| 2026-05-07 10:28 | 49.73197 | 7.67837 | 12030 ft | 151 kts | 312° |
| 2026-05-07 10:28 | 49.73935 | 7.66686 | 12031 ft | 151 kts | 311° |
| 2026-05-07 10:28 | 49.74677 | 7.65519 | 12026 ft | 153 kts | 311° |
| 2026-05-07 10:28 | 49.75422 | 7.64349 | 12027 ft | 153 kts | 312° |
| 2026-05-07 10:29 | 49.76172 | 7.63171 | 12027 ft | 154 kts | 311° |
| 2026-05-07 10:29 | 49.76922 | 7.61993 | 12029 ft | 153 kts | 311° |
| 2026-05-07 10:29 | 49.77672 | 7.60816 | 12025 ft | 154 kts | 312° |
| 2026-05-07 10:30 | 49.79121 | 7.58386 | 12019 ft | 155 kts | 310° |
| 2026-05-07 10:30 | 49.79851 | 7.57161 | 12012 ft | 154 kts | 309° |
| 2026-05-07 10:30 | 49.80576 | 7.55941 | 12024 ft | 154 kts | 310° |
| 2026-05-07 10:30 | 49.81301 | 7.54724 | 12024 ft | 153 kts | 310° |
| 2026-05-07 10:31 | 49.82021 | 7.53511 | 12023 ft | 152 kts | 309° |
| 2026-05-07 10:31 | 49.82733 | 7.52307 | 12040 ft | 151 kts | 309° |
| 2026-05-07 10:31 | 49.83440 | 7.51114 | 12032 ft | 150 kts | 309° |
| 2026-05-07 10:31 | 49.84141 | 7.49930 | 12042 ft | 149 kts | 309° |
| 2026-05-07 10:32 | 49.84840 | 7.48750 | 12043 ft | 148 kts | 309° |
| 2026-05-07 10:32 | 49.85533 | 7.47577 | 12036 ft | 147 kts | 309° |
| 2026-05-07 10:32 | 49.86223 | 7.46411 | 12030 ft | 146 kts | 309° |
| 2026-05-07 10:32 | 49.86900 | 7.45267 | 12038 ft | 146 kts | 309° |
| 2026-05-07 10:33 | 49.87584 | 7.44109 | 12041 ft | 146 kts | 309° |
| 2026-05-07 10:33 | 49.88267 | 7.42951 | 12045 ft | 146 kts | 309° |
| 2026-05-07 10:33 | 49.88951 | 7.41793 | 12053 ft | 146 kts | 309° |
| 2026-05-07 10:33 | 49.89636 | 7.40633 | 12053 ft | 146 kts | 309° |
| 2026-05-07 10:34 | 49.90322 | 7.39467 | 12052 ft | 147 kts | 309° |
| 2026-05-07 10:34 | 49.91011 | 7.38298 | 12060 ft | 147 kts | 309° |
| 2026-05-07 10:34 | 49.91703 | 7.37125 | 12060 ft | 147 kts | 309° |
| 2026-05-07 10:34 | 49.92394 | 7.35951 | 12059 ft | 147 kts | 309° |
| 2026-05-07 10:35 | 49.93085 | 7.34780 | 12060 ft | 147 kts | 309° |
| 2026-05-07 10:35 | 49.93777 | 7.33603 | 12060 ft | 148 kts | 309° |
| 2026-05-07 10:35 | 49.94469 | 7.32425 | 12059 ft | 148 kts | 309° |
| 2026-05-07 10:35 | 49.95161 | 7.31249 | 12058 ft | 147 kts | 309° |
| 2026-05-07 10:36 | 49.95853 | 7.30072 | 12059 ft | 148 kts | 309° |
| 2026-05-07 10:36 | 49.96545 | 7.28893 | 12059 ft | 148 kts | 309° |
| 2026-05-07 10:36 | 49.97238 | 7.27712 | 12058 ft | 148 kts | 309° |
| 2026-05-07 10:36 | 49.97931 | 7.26531 | 12061 ft | 148 kts | 309° |
| 2026-05-07 10:37 | 49.98624 | 7.25349 | 12053 ft | 148 kts | 309° |
| 2026-05-07 10:37 | 49.99320 | 7.24162 | 12060 ft | 148 kts | 309° |
| 2026-05-07 10:37 | 50.00016 | 7.22975 | 12056 ft | 149 kts | 309° |
| 2026-05-07 10:37 | 50.00712 | 7.21786 | 12061 ft | 149 kts | 309° |
| 2026-05-07 10:38 | 50.01410 | 7.20595 | 12058 ft | 149 kts | 309° |
| 2026-05-07 10:38 | 50.02096 | 7.19422 | 12058 ft | 149 kts | 309° |
| 2026-05-07 10:38 | 50.02792 | 7.18231 | 12059 ft | 149 kts | 309° |
| 2026-05-07 10:38 | 50.03489 | 7.17039 | 12055 ft | 149 kts | 309° |
| 2026-05-07 10:39 | 50.04186 | 7.15849 | 12055 ft | 149 kts | 309° |
| 2026-05-07 10:39 | 50.04885 | 7.14651 | 12054 ft | 150 kts | 309° |
| 2026-05-07 10:39 | 50.05588 | 7.13446 | 12053 ft | 151 kts | 309° |
| 2026-05-07 10:39 | 50.06292 | 7.12239 | 12052 ft | 151 kts | 309° |
| 2026-05-07 10:40 | 50.07000 | 7.11026 | 12056 ft | 151 kts | 309° |
| 2026-05-07 10:40 | 50.07706 | 7.09815 | 12054 ft | 151 kts | 309° |
| 2026-05-07 10:40 | 50.08411 | 7.08607 | 12058 ft | 151 kts | 309° |
| 2026-05-07 10:40 | 50.09114 | 7.07398 | 12058 ft | 150 kts | 309° |
| 2026-05-07 10:41 | 50.09819 | 7.06187 | 12056 ft | 151 kts | 309° |
| 2026-05-07 10:41 | 50.10526 | 7.04973 | 12056 ft | 151 kts | 309° |
| 2026-05-07 10:41 | 50.11231 | 7.03760 | 12055 ft | 151 kts | 309° |
| 2026-05-07 10:41 | 50.11933 | 7.02552 | 12054 ft | 150 kts | 309° |
| 2026-05-07 10:42 | 50.12631 | 7.01350 | 12057 ft | 149 kts | 309° |
| 2026-05-07 10:42 | 50.13326 | 7.00154 | 12059 ft | 149 kts | 309° |
| 2026-05-07 10:42 | 50.14022 | 6.98956 | 12059 ft | 149 kts | 309° |
| 2026-05-07 10:42 | 50.14717 | 6.97758 | 12060 ft | 149 kts | 308° |
| 2026-05-07 10:43 | 50.15414 | 6.96557 | 12053 ft | 149 kts | 308° |
| 2026-05-07 10:43 | 50.16110 | 6.95355 | 12056 ft | 149 kts | 309° |
| 2026-05-07 10:43 | 50.16806 | 6.94154 | 12058 ft | 149 kts | 308° |
| 2026-05-07 10:43 | 50.17501 | 6.92952 | 12057 ft | 150 kts | 308° |
| 2026-05-07 10:44 | 50.18198 | 6.91749 | 12058 ft | 149 kts | 308° |
| 2026-05-07 10:44 | 50.18659 | 6.90954 | 12057 ft | 149 kts | 308° |
| 2026-05-07 10:44 | 50.19352 | 6.89756 | 12055 ft | 149 kts | 308° |
| 2026-05-07 10:44 | 50.20271 | 6.88166 | 12054 ft | 149 kts | 308° |
| 2026-05-07 10:45 | 50.20964 | 6.86966 | 12049 ft | 149 kts | 308° |
| 2026-05-07 10:45 | 50.21660 | 6.85761 | 12048 ft | 149 kts | 308° |
| 2026-05-07 10:45 | 50.22343 | 6.84546 | 12045 ft | 149 kts | 305° |
| 2026-05-07 10:45 | 50.23009 | 6.83313 | 12045 ft | 148 kts | 307° |
| 2026-05-07 10:46 | 50.23464 | 6.82488 | 12045 ft | 148 kts | 307° |
| 2026-05-07 10:46 | 50.24134 | 6.81266 | 12045 ft | 148 kts | 307° |
| 2026-05-07 10:46 | 50.24799 | 6.80044 | 12043 ft | 147 kts | 307° |
| 2026-05-07 10:46 | 50.25462 | 6.78823 | 12039 ft | 147 kts | 307° |
| 2026-05-07 10:47 | 50.26126 | 6.77598 | 12036 ft | 148 kts | 307° |
| 2026-05-07 10:47 | 50.26792 | 6.76371 | 12035 ft | 148 kts | 307° |
| 2026-05-07 10:47 | 50.27449 | 6.75160 | 12031 ft | 148 kts | 307° |
| 2026-05-07 10:47 | 50.28119 | 6.73925 | 12033 ft | 149 kts | 307° |
| 2026-05-07 10:48 | 50.28791 | 6.72682 | 12033 ft | 150 kts | 307° |
| 2026-05-07 10:48 | 50.29465 | 6.71437 | 12028 ft | 150 kts | 307° |
| 2026-05-07 10:48 | 50.30138 | 6.70194 | 12025 ft | 149 kts | 307° |
| 2026-05-07 10:48 | 50.30808 | 6.68956 | 12026 ft | 149 kts | 307° |
| 2026-05-07 10:49 | 50.31478 | 6.67715 | 12026 ft | 149 kts | 307° |
| 2026-05-07 10:49 | 50.32148 | 6.66477 | 12025 ft | 149 kts | 307° |
| 2026-05-07 10:49 | 50.32816 | 6.65240 | 12024 ft | 149 kts | 307° |
| 2026-05-07 10:49 | 50.33481 | 6.64008 | 12020 ft | 148 kts | 307° |
| 2026-05-07 10:50 | 50.34147 | 6.62773 | 12016 ft | 148 kts | 307° |
| 2026-05-07 10:50 | 50.34812 | 6.61539 | 12016 ft | 148 kts | 307° |
| 2026-05-07 10:50 | 50.35478 | 6.60304 | 12019 ft | 148 kts | 307° |
| 2026-05-07 10:50 | 50.36142 | 6.59072 | 12017 ft | 148 kts | 306° |
| 2026-05-07 10:51 | 50.36807 | 6.57836 | 12010 ft | 149 kts | 307° |
| 2026-05-07 10:51 | 50.37473 | 6.56599 | 12015 ft | 149 kts | 307° |
| 2026-05-07 10:51 | 50.38140 | 6.55360 | 12018 ft | 149 kts | 307° |
| 2026-05-07 10:51 | 50.38806 | 6.54121 | 12017 ft | 149 kts | 306° |
| 2026-05-07 10:52 | 50.39472 | 6.52883 | 12015 ft | 149 kts | 306° |
| 2026-05-07 10:52 | 50.40140 | 6.51639 | 12018 ft | 150 kts | 307° |
| 2026-05-07 10:52 | 50.40814 | 6.50384 | 12017 ft | 151 kts | 306° |
| 2026-05-07 10:52 | 50.41492 | 6.49121 | 12016 ft | 152 kts | 307° |
| 2026-05-07 10:53 | 50.42171 | 6.47857 | 12014 ft | 150 kts | 307° |
| 2026-05-07 10:53 | 50.42841 | 6.46608 | 12020 ft | 149 kts | 307° |
| 2026-05-07 10:53 | 50.43506 | 6.45367 | 12020 ft | 148 kts | 306° |
| 2026-05-07 10:53 | 50.44167 | 6.44132 | 12019 ft | 147 kts | 306° |
| 2026-05-07 10:54 | 50.44826 | 6.42901 | 12019 ft | 148 kts | 306° |
| 2026-05-07 10:54 | 50.45478 | 6.41682 | 12018 ft | 148 kts | 306° |
| 2026-05-07 10:54 | 50.46137 | 6.40449 | 12018 ft | 147 kts | 306° |
| 2026-05-07 10:54 | 50.46796 | 6.39217 | 12017 ft | 148 kts | 306° |
| 2026-05-07 10:55 | 50.47456 | 6.37983 | 12020 ft | 147 kts | 306° |
| 2026-05-07 10:55 | 50.48113 | 6.36753 | 12020 ft | 147 kts | 306° |
| 2026-05-07 10:55 | 50.48772 | 6.35519 | 12019 ft | 147 kts | 306° |
| 2026-05-07 10:55 | 50.49432 | 6.34282 | 12022 ft | 148 kts | 306° |
| 2026-05-07 10:56 | 50.50093 | 6.33042 | 12024 ft | 148 kts | 306° |
| 2026-05-07 10:56 | 50.50758 | 6.31795 | 12024 ft | 149 kts | 306° |
| 2026-05-07 10:56 | 50.51423 | 6.30547 | 12027 ft | 149 kts | 306° |
| 2026-05-07 10:56 | 50.52090 | 6.29295 | 12026 ft | 150 kts | 306° |
| 2026-05-07 10:57 | 50.52757 | 6.28042 | 12022 ft | 150 kts | 306° |
| 2026-05-07 10:57 | 50.53426 | 6.26786 | 12027 ft | 150 kts | 306° |
| 2026-05-07 10:57 | 50.54091 | 6.25535 | 12030 ft | 149 kts | 306° |
| 2026-05-07 10:57 | 50.54755 | 6.24286 | 12028 ft | 149 kts | 306° |
| 2026-05-07 10:58 | 50.55416 | 6.23041 | 12036 ft | 148 kts | 306° |
| 2026-05-07 10:58 | 50.56075 | 6.21802 | 12034 ft | 148 kts | 306° |
| 2026-05-07 10:58 | 50.56724 | 6.20576 | 12031 ft | 147 kts | 305° |
| 2026-05-07 10:58 | 50.57199 | 6.19179 | 12034 ft | 144 kts | 287° |
| 2026-05-07 10:59 | 50.57539 | 6.17692 | 12033 ft | 144 kts | 287° |
| 2026-05-07 10:59 | 50.57876 | 6.16204 | 12032 ft | 144 kts | 287° |
| 2026-05-07 10:59 | 50.58212 | 6.14717 | 12035 ft | 144 kts | 287° |
| 2026-05-07 10:59 | 50.58548 | 6.13230 | 12029 ft | 144 kts | 287° |
| 2026-05-07 11:00 | 50.58884 | 6.11741 | 12039 ft | 144 kts | 287° |
| 2026-05-07 11:00 | 50.59221 | 6.10251 | 12041 ft | 145 kts | 287° |
| 2026-05-07 11:00 | 50.59557 | 6.08759 | 12036 ft | 144 kts | 287° |
| 2026-05-07 11:00 | 50.59893 | 6.07271 | 12040 ft | 144 kts | 287° |
| 2026-05-07 11:01 | 50.60228 | 6.05787 | 12046 ft | 144 kts | 287° |
| 2026-05-07 11:01 | 50.60564 | 6.04296 | 12034 ft | 144 kts | 287° |
| 2026-05-07 11:01 | 50.60899 | 6.02808 | 12037 ft | 144 kts | 287° |
| 2026-05-07 11:01 | 50.61233 | 6.01322 | 12044 ft | 144 kts | 288° |
| 2026-05-07 11:02 | 50.61569 | 5.99829 | 12045 ft | 144 kts | 288° |
| 2026-05-07 11:02 | 50.61903 | 5.98342 | 12044 ft | 144 kts | 288° |
| 2026-05-07 11:02 | 50.62237 | 5.96854 | 12043 ft | 144 kts | 288° |
| 2026-05-07 11:02 | 50.62571 | 5.95366 | 12047 ft | 144 kts | 288° |
| 2026-05-07 11:03 | 50.62905 | 5.93876 | 12043 ft | 144 kts | 288° |
| 2026-05-07 11:03 | 50.63238 | 5.92388 | 12044 ft | 144 kts | 288° |
| 2026-05-07 11:03 | 50.63571 | 5.90901 | 12046 ft | 144 kts | 288° |
| 2026-05-07 11:03 | 50.63903 | 5.89417 | 12047 ft | 144 kts | 288° |
| 2026-05-07 11:04 | 50.64235 | 5.87936 | 12059 ft | 143 kts | 288° |
| 2026-05-07 11:04 | 50.64565 | 5.86455 | 12061 ft | 143 kts | 288° |
| 2026-05-07 11:04 | 50.64899 | 5.84976 | 12055 ft | 143 kts | 291° |
| 2026-05-07 11:04 | 50.65337 | 5.83569 | 12058 ft | 143 kts | 296° |
| 2026-05-07 11:05 | 50.65789 | 5.82173 | 12064 ft | 143 kts | 296° |
| 2026-05-07 11:05 | 50.66239 | 5.80782 | 12063 ft | 143 kts | 296° |
| 2026-05-07 11:05 | 50.66690 | 5.79387 | 12065 ft | 143 kts | 296° |
| 2026-05-07 11:05 | 50.67141 | 5.77987 | 12068 ft | 143 kts | 296° |
| 2026-05-07 11:06 | 50.67587 | 5.76602 | 12066 ft | 144 kts | 296° |
| 2026-05-07 11:06 | 50.68040 | 5.75195 | 12066 ft | 144 kts | 297° |
| 2026-05-07 11:06 | 50.68499 | 5.73770 | 12067 ft | 144 kts | 297° |
| 2026-05-07 11:06 | 50.68945 | 5.72383 | 12067 ft | 144 kts | 297° |
| 2026-05-07 11:07 | 50.69398 | 5.70975 | 12069 ft | 144 kts | 297° |
| 2026-05-07 11:07 | 50.69852 | 5.69561 | 12068 ft | 144 kts | 297° |
| 2026-05-07 11:07 | 50.70305 | 5.68149 | 12066 ft | 144 kts | 297° |
| 2026-05-07 11:07 | 50.70760 | 5.66731 | 12068 ft | 144 kts | 297° |
| 2026-05-07 11:08 | 50.71213 | 5.65320 | 12068 ft | 144 kts | 297° |
| 2026-05-07 11:08 | 50.71665 | 5.63907 | 12071 ft | 145 kts | 297° |
| 2026-05-07 11:08 | 50.72122 | 5.62484 | 12069 ft | 146 kts | 297° |
| 2026-05-07 11:08 | 50.72579 | 5.61056 | 12073 ft | 146 kts | 298° |
| 2026-05-07 11:09 | 50.73035 | 5.59629 | 12065 ft | 145 kts | 298° |
| 2026-05-07 11:09 | 50.73490 | 5.58204 | 12070 ft | 146 kts | 298° |
| 2026-05-07 11:09 | 50.73947 | 5.56776 | 12072 ft | 146 kts | 298° |
| 2026-05-07 11:09 | 50.74403 | 5.55348 | 12071 ft | 146 kts | 298° |
| 2026-05-07 11:10 | 50.74861 | 5.53914 | 12066 ft | 146 kts | 298° |
| 2026-05-07 11:10 | 50.75320 | 5.52478 | 12068 ft | 147 kts | 298° |
| 2026-05-07 11:10 | 50.75778 | 5.51041 | 12067 ft | 147 kts | 298° |
| 2026-05-07 11:10 | 50.76237 | 5.49599 | 12067 ft | 147 kts | 298° |
| 2026-05-07 11:11 | 50.76697 | 5.48154 | 12062 ft | 147 kts | 298° |
| 2026-05-07 11:11 | 50.77157 | 5.46710 | 12062 ft | 147 kts | 298° |
| 2026-05-07 11:11 | 50.77616 | 5.45268 | 12060 ft | 147 kts | 298° |
| 2026-05-07 11:11 | 50.78074 | 5.43823 | 12064 ft | 147 kts | 298° |
| 2026-05-07 11:12 | 50.78530 | 5.42389 | 12067 ft | 145 kts | 298° |
| 2026-05-07 11:12 | 50.78974 | 5.40994 | 11967 ft | 140 kts | 299° |
| 2026-05-07 11:12 | 50.79421 | 5.39591 | 11672 ft | 144 kts | 299° |
| 2026-05-07 11:12 | 50.79866 | 5.38184 | 11446 ft | 143 kts | 299° |
| 2026-05-07 11:13 | 50.80304 | 5.36800 | 11189 ft | 142 kts | 300° |
| 2026-05-07 11:13 | 50.80746 | 5.35402 | 10930 ft | 142 kts | 299° |
| 2026-05-07 11:13 | 50.81188 | 5.34004 | 10682 ft | 142 kts | 300° |
| 2026-05-07 11:13 | 50.81629 | 5.32614 | 10436 ft | 141 kts | 300° |
| 2026-05-07 11:14 | 50.82064 | 5.31241 | 10156 ft | 137 kts | 300° |
| 2026-05-07 11:14 | 50.82497 | 5.29876 | 9692 ft | 140 kts | 300° |
| 2026-05-07 11:14 | 50.82928 | 5.28506 | 9328 ft | 138 kts | 301° |
| 2026-05-07 11:14 | 50.83356 | 5.27151 | 8943 ft | 138 kts | 301° |
| 2026-05-07 11:15 | 50.83782 | 5.25798 | 8576 ft | 137 kts | 300° |
| 2026-05-07 11:15 | 50.84208 | 5.24446 | 8332 ft | 137 kts | 300° |
| 2026-05-07 11:15 | 50.84633 | 5.23090 | 8114 ft | 137 kts | 301° |
| 2026-05-07 11:15 | 50.85058 | 5.21746 | 7907 ft | 136 kts | 301° |
| 2026-05-07 11:16 | 50.85482 | 5.20404 | 7678 ft | 136 kts | 301° |
| 2026-05-07 11:16 | 50.85903 | 5.19066 | 7429 ft | 135 kts | 301° |
| 2026-05-07 11:16 | 50.86317 | 5.17747 | 7302 ft | 129 kts | 301° |
| 2026-05-07 11:16 | 50.86727 | 5.16430 | 7271 ft | 140 kts | 301° |
| 2026-05-07 11:17 | 50.87196 | 5.14959 | 7018 ft | 157 kts | 301° |
| 2026-05-07 11:17 | 50.87775 | 5.13442 | 6773 ft | 164 kts | 315° |
| 2026-05-07 11:17 | 50.88632 | 5.12298 | 6506 ft | 161 kts | 326° |
| 2026-05-07 11:17 | 50.89523 | 5.11227 | 6196 ft | 161 kts | 326° |
| 2026-05-07 11:18 | 50.90411 | 5.10157 | 5898 ft | 160 kts | 326° |
| 2026-05-07 11:18 | 50.91283 | 5.09106 | 5597 ft | 159 kts | 326° |
| 2026-05-07 11:18 | 50.92163 | 5.08047 | 5308 ft | 158 kts | 326° |
| 2026-05-07 11:18 | 50.93038 | 5.06995 | 5009 ft | 158 kts | 326° |
| 2026-05-07 11:19 | 50.93910 | 5.05949 | 4706 ft | 157 kts | 327° |
| 2026-05-07 11:19 | 50.94776 | 5.04906 | 4402 ft | 156 kts | 327° |
| 2026-05-07 11:19 | 50.95638 | 5.03865 | 4117 ft | 155 kts | 327° |
| 2026-05-07 11:19 | 50.96497 | 5.02831 | 3847 ft | 155 kts | 326° |
| 2026-05-07 11:20 | 50.97354 | 5.01796 | 3609 ft | 154 kts | 327° |
| 2026-05-07 11:20 | 50.98206 | 5.00773 | 3325 ft | 153 kts | 327° |
| 2026-05-07 11:20 | 50.99052 | 4.99748 | 3069 ft | 152 kts | 327° |
| 2026-05-07 11:20 | 50.99891 | 4.98734 | 2789 ft | 151 kts | 326° |
| 2026-05-07 11:21 | 51.00724 | 4.97730 | 2522 ft | 150 kts | 326° |
| 2026-05-07 11:21 | 51.01402 | 4.96485 | 2371 ft | 144 kts | 304° |
| 2026-05-07 11:21 | 51.01882 | 4.95199 | 2452 ft | 129 kts | 306° |
| 2026-05-07 11:21 | 51.02334 | 4.94024 | 2492 ft | 125 kts | 306° |
| 2026-05-07 11:22 | 51.02805 | 4.92815 | 2499 ft | 132 kts | 306° |
| 2026-05-07 11:22 | 51.03303 | 4.91553 | 2496 ft | 137 kts | 306° |
| 2026-05-07 11:22 | 51.03810 | 4.90261 | 2500 ft | 139 kts | 306° |
| 2026-05-07 11:22 | 51.04323 | 4.88950 | 2503 ft | 140 kts | 306° |
| 2026-05-07 11:23 | 51.04841 | 4.87631 | 2502 ft | 141 kts | 307° |
| 2026-05-07 11:23 | 51.05367 | 4.86290 | 2496 ft | 144 kts | 306° |
| 2026-05-07 11:23 | 51.05899 | 4.84939 | 2502 ft | 145 kts | 306° |
| 2026-05-07 11:23 | 51.06432 | 4.83579 | 2500 ft | 146 kts | 306° |
| 2026-05-07 11:24 | 51.06971 | 4.82207 | 2501 ft | 147 kts | 305° |
| 2026-05-07 11:24 | 51.07513 | 4.80823 | 2498 ft | 148 kts | 306° |
| 2026-05-07 11:24 | 51.08057 | 4.79432 | 2503 ft | 149 kts | 306° |
| 2026-05-07 11:24 | 51.08603 | 4.78034 | 2508 ft | 149 kts | 306° |
| 2026-05-07 11:25 | 51.09148 | 4.76635 | 2506 ft | 149 kts | 306° |
| 2026-05-07 11:25 | 51.09694 | 4.75239 | 2503 ft | 149 kts | 306° |
| 2026-05-07 11:25 | 51.10238 | 4.73841 | 2510 ft | 149 kts | 306° |
| 2026-05-07 11:25 | 51.10787 | 4.72444 | 2508 ft | 149 kts | 306° |
| 2026-05-07 11:26 | 51.11334 | 4.71045 | 2504 ft | 148 kts | 306° |
| 2026-05-07 11:26 | 51.11874 | 4.69658 | 2514 ft | 148 kts | 306° |
| 2026-05-07 11:26 | 51.12408 | 4.68280 | 2509 ft | 149 kts | 306° |
| 2026-05-07 11:26 | 51.12956 | 4.66872 | 2515 ft | 151 kts | 306° |
| 2026-05-07 11:27 | 51.13512 | 4.65449 | 2517 ft | 151 kts | 306° |
| 2026-05-07 11:27 | 51.14062 | 4.64036 | 2513 ft | 149 kts | 306° |
| 2026-05-07 11:27 | 51.14612 | 4.62626 | 2510 ft | 150 kts | 306° |
| 2026-05-07 11:27 | 51.15159 | 4.61213 | 2472 ft | 150 kts | 305° |
| 2026-05-07 11:28 | 51.15706 | 4.59809 | 2321 ft | 144 kts | 306° |
| 2026-05-07 11:28 | 51.16232 | 4.58490 | 1591 ft | 145 kts | 306° |
| 2026-05-07 11:28 | 51.16688 | 4.57252 | 1482 ft | 117 kts | 291° |
| 2026-05-07 11:28 | 51.16830 | 4.56007 | 1302 ft | 109 kts | 285° |
| 2026-05-07 11:29 | 51.17014 | 4.54941 | 1254 ft | 91 kts | 296° |
| 2026-05-07 11:29 | 51.17226 | 4.54059 | 1178 ft | 84 kts | 297° |
| 2026-05-07 11:29 | 51.17457 | 4.53165 | 988 ft | 93 kts | 294° |
| 2026-05-07 11:29 | 51.17664 | 4.52188 | 840 ft | 92 kts | 294° |
| 2026-05-07 11:30 | 51.17885 | 4.51224 | 689 ft | 92 kts | 297° |
| 2026-05-07 11:30 | 51.18093 | 4.50319 | 529 ft | 88 kts | 290° |
| 2026-05-07 11:30 | 51.18297 | 4.49413 | 374 ft | 85 kts | 294° |
| 2026-05-07 11:30 | 51.18497 | 4.48534 | 244 ft | 83 kts | 291° |
| 2026-05-07 11:31 | 51.18688 | 4.47681 | 137 ft | 82 kts | 291° |
| 2026-05-07 11:31 | 51.18874 | 4.46859 | 36 ft | 69 kts | 292° |
| 2026-05-07 11:31 | 51.19001 | 4.46299 | 38 ft | 43 kts | 291° |
| 2026-05-07 11:31 | 51.19085 | 4.45923 | 36 ft | 30 kts | 290° |
| 2026-05-07 11:32 | 51.19044 | 4.45586 | 35 ft | 11 kts | 230° |
| 2026-05-07 11:32 | 51.19040 | 4.45577 | 35 ft | 0 kts | 233° |
| 2026-05-07 11:32 | 51.19029 | 4.45552 | 35 ft | 9 kts | 233° |
| 2026-05-07 11:33 | 51.18995 | 4.45485 | 35 ft | 12 kts | 232° |
| 2026-05-07 11:33 | 51.18932 | 4.45392 | 35 ft | 13 kts | 167° |
| 2026-05-07 11:33 | 51.18847 | 4.45457 | 35 ft | 14 kts | 163° |
| 2026-05-07 11:33 | 51.18771 | 4.45483 | 35 ft | 5 kts | 201° |
| 2026-05-07 11:34 | 51.18745 | 4.45432 | 35 ft | 7 kts | 239° |
| 2026-05-07 11:34 | 51.18759 | 4.45394 | 35 ft | 5 kts | 331° |
| 2026-05-07 11:34 | 51.18775 | 4.45378 | 35 ft | 0 kts | 328° |